sensor_id;sensor_type;location;lat;lon;timestamp;temperature;humidity
83553;DHT22;73510;50.866;5.420;2024-03-23T00:54:22;9.70;67.10
83553;DHT22;73510;50.866;5.420;2024-03-23T00:56:47;9.70;66.70
83553;DHT22;73510;50.866;5.420;2024-03-23T00:59:13;9.70;67.20
83553;DHT22;73510;50.866;5.420;2024-03-23T01:01:39;9.70;67.20
83553;DHT22;73510;50.866;5.420;2024-03-23T01:04:05;9.70;67.50
83553;DHT22;73510;50.866;5.420;2024-03-23T01:06:30;9.70;67.20
83553;DHT22;73510;50.866;5.420;2024-03-23T01:08:56;9.60;66.50
83553;DHT22;73510;50.866;5.420;2024-03-23T01:11:22;9.60;66.80
83553;DHT22;73510;50.866;5.420;2024-03-23T01:13:47;9.60;67.20
83553;DHT22;73510;50.866;5.420;2024-03-23T01:16:13;9.60;67.30
83553;DHT22;73510;50.866;5.420;2024-03-23T01:18:38;9.70;67.80
83553;DHT22;73510;50.866;5.420;2024-03-23T01:21:04;9.70;67.70
83553;DHT22;73510;50.866;5.420;2024-03-23T01:23:30;9.70;67.40
83553;DHT22;73510;50.866;5.420;2024-03-23T01:25:56;9.70;67.40
83553;DHT22;73510;50.866;5.420;2024-03-23T01:28:22;9.70;67.90
83553;DHT22;73510;50.866;5.420;2024-03-23T01:30:49;9.70;67.70
83553;DHT22;73510;50.866;5.420;2024-03-23T01:33:16;9.70;67.90
83553;DHT22;73510;50.866;5.420;2024-03-23T01:35:41;9.70;67.90
83553;DHT22;73510;50.866;5.420;2024-03-23T01:38:07;9.70;68.30
83553;DHT22;73510;50.866;5.420;2024-03-23T01:40:32;9.70;68.20
83553;DHT22;73510;50.866;5.420;2024-03-23T01:43:02;9.70;66.90
83553;DHT22;73510;50.866;5.420;2024-03-23T01:45:29;9.60;67.40
83553;DHT22;73510;50.866;5.420;2024-03-23T01:47:55;9.50;67.70
83553;DHT22;73510;50.866;5.420;2024-03-23T01:50:21;9.40;67.60
83553;DHT22;73510;50.866;5.420;2024-03-23T01:52:47;9.40;67.70
83553;DHT22;73510;50.866;5.420;2024-03-23T01:55:13;9.40;68.20
83553;DHT22;73510;50.866;5.420;2024-03-23T01:57:39;9.40;68.90
83553;DHT22;73510;50.866;5.420;2024-03-23T02:00:05;9.40;68.70
83553;DHT22;73510;50.866;5.420;2024-03-23T02:02:32;9.40;68.70
83553;DHT22;73510;50.866;5.420;2024-03-23T02:04:58;9.50;68.90
83553;DHT22;73510;50.866;5.420;2024-03-23T02:07:24;9.50;68.80
83553;DHT22;73510;50.866;5.420;2024-03-23T02:09:51;9.50;68.80
83553;DHT22;73510;50.866;5.420;2024-03-23T02:12:18;9.50;68.30
83553;DHT22;73510;50.866;5.420;2024-03-23T02:14:43;9.40;68.00
83553;DHT22;73510;50.866;5.420;2024-03-23T02:17:09;9.30;68.30
83553;DHT22;73510;50.866;5.420;2024-03-23T02:19:35;9.30;69.20
83553;DHT22;73510;50.866;5.420;2024-03-23T02:22:00;9.30;69.40
83553;DHT22;73510;50.866;5.420;2024-03-23T02:24:26;9.40;68.90
83553;DHT22;73510;50.866;5.420;2024-03-23T02:26:52;9.40;68.80
83553;DHT22;73510;50.866;5.420;2024-03-23T02:29:17;9.40;68.70
83553;DHT22;73510;50.866;5.420;2024-03-23T02:31:45;9.40;68.50
83553;DHT22;73510;50.866;5.420;2024-03-23T02:34:10;9.40;69.00
83553;DHT22;73510;50.866;5.420;2024-03-23T02:36:36;9.20;69.00
83553;DHT22;73510;50.866;5.420;2024-03-23T02:39:02;9.20;68.30
83553;DHT22;73510;50.866;5.420;2024-03-23T02:41:27;9.20;69.00
83553;DHT22;73510;50.866;5.420;2024-03-23T02:43:53;9.20;68.70
83553;DHT22;73510;50.866;5.420;2024-03-23T02:46:19;9.20;68.60
83553;DHT22;73510;50.866;5.420;2024-03-23T02:48:45;9.20;68.90
83553;DHT22;73510;50.866;5.420;2024-03-23T02:51:10;9.20;69.00
83553;DHT22;73510;50.866;5.420;2024-03-23T02:53:36;9.20;68.80
83553;DHT22;73510;50.866;5.420;2024-03-23T02:56:02;9.20;68.60
83553;DHT22;73510;50.866;5.420;2024-03-23T02:58:27;9.20;68.20
83553;DHT22;73510;50.866;5.420;2024-03-23T03:00:53;9.20;68.90
83553;DHT22;73510;50.866;5.420;2024-03-23T03:03:19;9.20;69.30
83553;DHT22;73510;50.866;5.420;2024-03-23T03:05:44;9.20;69.30
83553;DHT22;73510;50.866;5.420;2024-03-23T03:08:10;9.20;69.40
83553;DHT22;73510;50.866;5.420;2024-03-23T03:10:35;9.20;69.50
83553;DHT22;73510;50.866;5.420;2024-03-23T03:13:02;9.20;69.50
83553;DHT22;73510;50.866;5.420;2024-03-23T03:15:28;9.20;69.10
83553;DHT22;73510;50.866;5.420;2024-03-23T03:17:54;9.20;69.10
83553;DHT22;73510;50.866;5.420;2024-03-23T03:20:20;9.20;69.20
83553;DHT22;73510;50.866;5.420;2024-03-23T03:22:47;9.20;69.00
83553;DHT22;73510;50.866;5.420;2024-03-23T03:25:13;9.20;69.10
83553;DHT22;73510;50.866;5.420;2024-03-23T03:27:39;9.20;69.00
83553;DHT22;73510;50.866;5.420;2024-03-23T03:30:05;9.20;69.00
83553;DHT22;73510;50.866;5.420;2024-03-23T03:32:32;9.20;68.70
83553;DHT22;73510;50.866;5.420;2024-03-23T03:34:58;9.20;68.70
83553;DHT22;73510;50.866;5.420;2024-03-23T03:37:25;9.20;68.70
83553;DHT22;73510;50.866;5.420;2024-03-23T03:39:50;9.20;69.00
83553;DHT22;73510;50.866;5.420;2024-03-23T03:42:16;9.20;68.90
83553;DHT22;73510;50.866;5.420;2024-03-23T03:44:42;9.20;68.80
83553;DHT22;73510;50.866;5.420;2024-03-23T03:47:07;9.20;68.80
83553;DHT22;73510;50.866;5.420;2024-03-23T03:49:33;9.20;69.00
83553;DHT22;73510;50.866;5.420;2024-03-23T03:51:59;9.20;68.70
83553;DHT22;73510;50.866;5.420;2024-03-23T03:54:26;9.20;69.00
83553;DHT22;73510;50.866;5.420;2024-03-23T03:56:52;9.20;68.50
83553;DHT22;73510;50.866;5.420;2024-03-23T03:59:17;9.20;68.80
83553;DHT22;73510;50.866;5.420;2024-03-23T04:01:43;9.20;68.70
83553;DHT22;73510;50.866;5.420;2024-03-23T04:04:09;9.20;68.80
83553;DHT22;73510;50.866;5.420;2024-03-23T04:06:34;9.20;68.30
83553;DHT22;73510;50.866;5.420;2024-03-23T04:09:01;9.20;68.10
83553;DHT22;73510;50.866;5.420;2024-03-23T04:11:26;9.20;68.60
83553;DHT22;73510;50.866;5.420;2024-03-23T04:13:52;9.10;68.20
83553;DHT22;73510;50.866;5.420;2024-03-23T04:16:35;9.10;68.70
83553;DHT22;73510;50.866;5.420;2024-03-23T04:19:01;9.00;69.00
83553;DHT22;73510;50.866;5.420;2024-03-23T04:21:26;9.00;69.10
83553;DHT22;73510;50.866;5.420;2024-03-23T04:23:52;9.00;68.60
83553;DHT22;73510;50.866;5.420;2024-03-23T04:26:17;9.00;68.60
83553;DHT22;73510;50.866;5.420;2024-03-23T04:28:43;9.00;68.70
83553;DHT22;73510;50.866;5.420;2024-03-23T04:31:09;9.00;68.80
83553;DHT22;73510;50.866;5.420;2024-03-23T04:33:35;8.90;68.60
83553;DHT22;73510;50.866;5.420;2024-03-23T04:36:01;8.90;68.60
83553;DHT22;73510;50.866;5.420;2024-03-23T04:38:26;8.80;68.50
83553;DHT22;73510;50.866;5.420;2024-03-23T04:40:59;8.80;68.30
83553;DHT22;73510;50.866;5.420;2024-03-23T04:43:28;8.60;68.40
83553;DHT22;73510;50.866;5.420;2024-03-23T04:45:54;8.60;68.90
83553;DHT22;73510;50.866;5.420;2024-03-23T04:48:20;8.50;69.20
83553;DHT22;73510;50.866;5.420;2024-03-23T04:50:47;8.50;69.10
83553;DHT22;73510;50.866;5.420;2024-03-23T04:53:14;8.40;69.10
83553;DHT22;73510;50.866;5.420;2024-03-23T04:55:40;8.40;69.10
83553;DHT22;73510;50.866;5.420;2024-03-23T04:58:05;8.30;69.00
83553;DHT22;73510;50.866;5.420;2024-03-23T05:00:31;8.20;69.10
83553;DHT22;73510;50.866;5.420;2024-03-23T05:02:56;8.20;69.40
83553;DHT22;73510;50.866;5.420;2024-03-23T05:05:22;8.10;69.60
83553;DHT22;73510;50.866;5.420;2024-03-23T05:07:48;8.10;70.00
83553;DHT22;73510;50.866;5.420;2024-03-23T05:10:14;8.00;70.30
83553;DHT22;73510;50.866;5.420;2024-03-23T05:12:40;8.00;70.50
83553;DHT22;73510;50.866;5.420;2024-03-23T05:15:06;8.00;70.60
83553;DHT22;73510;50.866;5.420;2024-03-23T05:17:34;8.10;70.60
83553;DHT22;73510;50.866;5.420;2024-03-23T05:20:01;8.10;70.70
83553;DHT22;73510;50.866;5.420;2024-03-23T05:22:28;8.10;70.70
83553;DHT22;73510;50.866;5.420;2024-03-23T05:24:54;8.00;70.80
83553;DHT22;73510;50.866;5.420;2024-03-23T05:27:19;8.10;70.80
83553;DHT22;73510;50.866;5.420;2024-03-23T05:29:45;8.00;70.80
83553;DHT22;73510;50.866;5.420;2024-03-23T05:32:11;8.00;70.70
83553;DHT22;73510;50.866;5.420;2024-03-23T05:34:36;8.00;70.60
83553;DHT22;73510;50.866;5.420;2024-03-23T05:37:02;8.00;70.90
83553;DHT22;73510;50.866;5.420;2024-03-23T05:39:28;8.10;70.80
83553;DHT22;73510;50.866;5.420;2024-03-23T05:41:53;8.10;71.00
83553;DHT22;73510;50.866;5.420;2024-03-23T05:44:19;8.10;70.80
83553;DHT22;73510;50.866;5.420;2024-03-23T05:46:45;8.10;70.80
83553;DHT22;73510;50.866;5.420;2024-03-23T05:49:15;8.10;70.80
83553;DHT22;73510;50.866;5.420;2024-03-23T05:51:40;8.20;71.00
83553;DHT22;73510;50.866;5.420;2024-03-23T05:54:06;8.20;71.10
83553;DHT22;73510;50.866;5.420;2024-03-23T05:56:32;8.30;70.90
83553;DHT22;73510;50.866;5.420;2024-03-23T05:58:57;8.30;70.40
83553;DHT22;73510;50.866;5.420;2024-03-23T06:01:23;8.30;70.40
83553;DHT22;73510;50.866;5.420;2024-03-23T06:03:49;8.30;69.80
83553;DHT22;73510;50.866;5.420;2024-03-23T06:06:14;8.30;69.80
83553;DHT22;73510;50.866;5.420;2024-03-23T06:08:40;8.30;69.60
83553;DHT22;73510;50.866;5.420;2024-03-23T06:11:06;8.30;69.60
83553;DHT22;73510;50.866;5.420;2024-03-23T06:13:32;8.40;69.40
83553;DHT22;73510;50.866;5.420;2024-03-23T06:15:59;8.50;69.20
83553;DHT22;73510;50.866;5.420;2024-03-23T06:18:25;8.50;69.20
83553;DHT22;73510;50.866;5.420;2024-03-23T06:20:51;8.60;69.10
83553;DHT22;73510;50.866;5.420;2024-03-23T06:23:17;8.60;69.20
83553;DHT22;73510;50.866;5.420;2024-03-23T06:25:45;9.00;68.90
83553;DHT22;73510;50.866;5.420;2024-03-23T06:28:11;9.10;68.80
83553;DHT22;73510;50.866;5.420;2024-03-23T06:30:36;9.20;68.80
83553;DHT22;73510;50.866;5.420;2024-03-23T06:33:02;9.20;68.30
83553;DHT22;73510;50.866;5.420;2024-03-23T06:35:28;9.10;68.10
83553;DHT22;73510;50.866;5.420;2024-03-23T06:37:53;9.00;68.30
83553;DHT22;73510;50.866;5.420;2024-03-23T06:40:19;9.00;68.20
83553;DHT22;73510;50.866;5.420;2024-03-23T06:42:45;9.00;68.30
83553;DHT22;73510;50.866;5.420;2024-03-23T06:45:11;9.00;68.30
83553;DHT22;73510;50.866;5.420;2024-03-23T06:47:37;9.30;68.20
83553;DHT22;73510;50.866;5.420;2024-03-23T06:50:03;9.40;67.50
83553;DHT22;73510;50.866;5.420;2024-03-23T06:52:30;9.60;67.30
83553;DHT22;73510;50.866;5.420;2024-03-23T06:54:56;10.00;66.70
83553;DHT22;73510;50.866;5.420;2024-03-23T06:57:22;10.40;65.90
83553;DHT22;73510;50.866;5.420;2024-03-23T06:59:47;10.80;65.00
83553;DHT22;73510;50.866;5.420;2024-03-23T07:02:13;11.50;63.50
83553;DHT22;73510;50.866;5.420;2024-03-23T07:04:39;11.70;63.20
83553;DHT22;73510;50.866;5.420;2024-03-23T07:07:05;11.70;62.80
83553;DHT22;73510;50.866;5.420;2024-03-23T07:09:31;11.70;63.20
83553;DHT22;73510;50.866;5.420;2024-03-23T07:11:57;11.90;62.20
83553;DHT22;73510;50.866;5.420;2024-03-23T07:14:23;11.70;61.60
83553;DHT22;73510;50.866;5.420;2024-03-23T07:16:49;11.60;62.50
83553;DHT22;73510;50.866;5.420;2024-03-23T07:19:16;11.50;62.40
83553;DHT22;73510;50.866;5.420;2024-03-23T07:21:45;11.30;62.30
83553;DHT22;73510;50.866;5.420;2024-03-23T07:24:11;11.10;62.40
83553;DHT22;73510;50.866;5.420;2024-03-23T07:26:37;11.10;62.50
83553;DHT22;73510;50.866;5.420;2024-03-23T07:29:04;12.50;61.40
83553;DHT22;73510;50.866;5.420;2024-03-23T07:31:29;13.80;58.70
83553;DHT22;73510;50.866;5.420;2024-03-23T07:33:55;14.80;56.60
83553;DHT22;73510;50.866;5.420;2024-03-23T07:36:21;15.50;55.50
83553;DHT22;73510;50.866;5.420;2024-03-23T07:38:46;15.30;55.30
83553;DHT22;73510;50.866;5.420;2024-03-23T07:41:15;15.00;55.20
83553;DHT22;73510;50.866;5.420;2024-03-23T07:43:45;14.80;55.20
83553;DHT22;73510;50.866;5.420;2024-03-23T07:46:10;14.80;55.30
83553;DHT22;73510;50.866;5.420;2024-03-23T07:48:38;14.60;55.80
83553;DHT22;73510;50.866;5.420;2024-03-23T07:51:05;14.40;55.90
83553;DHT22;73510;50.866;5.420;2024-03-23T07:53:32;14.10;57.10
83553;DHT22;73510;50.866;5.420;2024-03-23T07:58:26;13.30;57.40
83553;DHT22;73510;50.866;5.420;2024-03-23T08:00:53;13.10;58.10
83553;DHT22;73510;50.866;5.420;2024-03-23T08:03:19;13.00;57.80
83553;DHT22;73510;50.866;5.420;2024-03-23T08:05:45;12.90;58.40
83553;DHT22;73510;50.866;5.420;2024-03-23T08:08:11;13.10;58.10
83553;DHT22;73510;50.866;5.420;2024-03-23T08:10:37;13.50;58.40
83553;DHT22;73510;50.866;5.420;2024-03-23T08:13:12;14.70;55.70
83553;DHT22;73510;50.866;5.420;2024-03-23T08:15:37;16.00;53.90
83553;DHT22;73510;50.866;5.420;2024-03-23T08:18:03;17.00;52.90
83553;DHT22;73510;50.866;5.420;2024-03-23T08:20:29;17.00;51.50
83553;DHT22;73510;50.866;5.420;2024-03-23T08:22:55;16.40;52.20
83553;DHT22;73510;50.866;5.420;2024-03-23T08:25:21;15.70;53.20
83553;DHT22;73510;50.866;5.420;2024-03-23T08:27:47;15.10;54.40
83553;DHT22;73510;50.866;5.420;2024-03-23T08:30:13;14.60;54.50
83553;DHT22;73510;50.866;5.420;2024-03-23T08:32:38;14.40;55.00
83553;DHT22;73510;50.866;5.420;2024-03-23T08:35:04;14.30;55.60
83553;DHT22;73510;50.866;5.420;2024-03-23T08:37:30;14.10;56.10
83553;DHT22;73510;50.866;5.420;2024-03-23T08:39:56;13.80;56.90
83553;DHT22;73510;50.866;5.420;2024-03-23T08:42:21;13.50;56.80
83553;DHT22;73510;50.866;5.420;2024-03-23T08:44:47;13.50;56.70
83553;DHT22;73510;50.866;5.420;2024-03-23T08:47:15;14.20;56.50
83553;DHT22;73510;50.866;5.420;2024-03-23T08:49:41;15.50;54.20
83553;DHT22;73510;50.866;5.420;2024-03-23T08:52:07;16.80;51.90
83553;DHT22;73510;50.866;5.420;2024-03-23T08:54:33;17.90;50.30
83553;DHT22;73510;50.866;5.420;2024-03-23T08:56:59;18.90;48.80
83553;DHT22;73510;50.866;5.420;2024-03-23T08:59:25;19.70;46.70
83553;DHT22;73510;50.866;5.420;2024-03-23T09:01:51;20.10;45.50
83553;DHT22;73510;50.866;5.420;2024-03-23T09:04:16;20.50;45.80
83553;DHT22;73510;50.866;5.420;2024-03-23T09:06:43;20.90;45.60
83553;DHT22;73510;50.866;5.420;2024-03-23T09:09:08;21.40;44.90
83553;DHT22;73510;50.866;5.420;2024-03-23T09:11:34;21.90;44.10
83553;DHT22;73510;50.866;5.420;2024-03-23T09:14:00;22.20;44.80
83553;DHT22;73510;50.866;5.420;2024-03-23T09:16:26;22.80;43.20
83553;DHT22;73510;50.866;5.420;2024-03-23T09:18:52;22.90;42.60
83553;DHT22;73510;50.866;5.420;2024-03-23T09:21:18;23.00;42.90
83553;DHT22;73510;50.866;5.420;2024-03-23T09:23:44;22.50;43.00
83553;DHT22;73510;50.866;5.420;2024-03-23T09:26:10;22.60;43.30
83553;DHT22;73510;50.866;5.420;2024-03-23T09:28:35;22.70;44.60
83553;DHT22;73510;50.866;5.420;2024-03-23T09:31:05;22.90;42.30
83553;DHT22;73510;50.866;5.420;2024-03-23T09:33:31;23.00;43.00
83553;DHT22;73510;50.866;5.420;2024-03-23T09:35:56;23.60;43.00
83553;DHT22;73510;50.866;5.420;2024-03-23T09:38:25;24.30;41.40
83553;DHT22;73510;50.866;5.420;2024-03-23T09:40:53;24.70;40.70
83553;DHT22;73510;50.866;5.420;2024-03-23T09:43:19;25.20;39.80
83553;DHT22;73510;50.866;5.420;2024-03-23T09:45:45;25.50;40.00
83553;DHT22;73510;50.866;5.420;2024-03-23T09:48:12;25.40;40.10
83553;DHT22;73510;50.866;5.420;2024-03-23T09:50:42;25.30;40.40
83553;DHT22;73510;50.866;5.420;2024-03-23T09:53:11;25.50;39.60
83553;DHT22;73510;50.866;5.420;2024-03-23T09:55:38;25.40;38.70
83553;DHT22;73510;50.866;5.420;2024-03-23T09:58:05;25.00;38.70
83553;DHT22;73510;50.866;5.420;2024-03-23T10:00:31;24.30;40.20
83553;DHT22;73510;50.866;5.420;2024-03-23T10:02:58;23.10;39.80
83553;DHT22;73510;50.866;5.420;2024-03-23T10:05:27;22.60;40.70
83553;DHT22;73510;50.866;5.420;2024-03-23T10:07:53;22.70;41.50
83553;DHT22;73510;50.866;5.420;2024-03-23T10:10:19;23.10;41.00
83553;DHT22;73510;50.866;5.420;2024-03-23T10:12:47;23.40;40.20
83553;DHT22;73510;50.866;5.420;2024-03-23T10:15:21;22.90;40.40
83553;DHT22;73510;50.866;5.420;2024-03-23T10:17:47;22.30;41.20
83553;DHT22;73510;50.866;5.420;2024-03-23T10:20:13;22.20;41.20
83553;DHT22;73510;50.866;5.420;2024-03-23T10:22:39;22.70;40.80
83553;DHT22;73510;50.866;5.420;2024-03-23T10:25:09;22.60;41.20
83553;DHT22;73510;50.866;5.420;2024-03-23T10:27:35;22.50;41.10
83553;DHT22;73510;50.866;5.420;2024-03-23T10:30:11;22.10;41.10
83553;DHT22;73510;50.866;5.420;2024-03-23T10:32:37;21.30;41.50
83553;DHT22;73510;50.866;5.420;2024-03-23T10:35:19;20.50;41.90
83553;DHT22;73510;50.866;5.420;2024-03-23T10:37:47;20.00;42.80
83553;DHT22;73510;50.866;5.420;2024-03-23T10:40:15;19.70;42.80
83553;DHT22;73510;50.866;5.420;2024-03-23T10:42:41;19.50;43.90
83553;DHT22;73510;50.866;5.420;2024-03-23T10:45:08;19.40;43.40
83553;DHT22;73510;50.866;5.420;2024-03-23T10:47:37;19.70;43.00
83553;DHT22;73510;50.866;5.420;2024-03-23T10:50:04;20.60;42.60
83553;DHT22;73510;50.866;5.420;2024-03-23T10:52:33;21.50;41.30
83553;DHT22;73510;50.866;5.420;2024-03-23T10:55:02;21.90;40.00
83553;DHT22;73510;50.866;5.420;2024-03-23T10:57:45;21.50;40.40
83553;DHT22;73510;50.866;5.420;2024-03-23T11:00:14;21.90;40.40
83553;DHT22;73510;50.866;5.420;2024-03-23T11:02:40;22.50;39.90
83553;DHT22;73510;50.866;5.420;2024-03-23T11:05:46;22.80;40.60
83553;DHT22;73510;50.866;5.420;2024-03-23T11:08:30;22.70;39.30
83553;DHT22;73510;50.866;5.420;2024-03-23T11:11:15;22.60;39.30
83553;DHT22;73510;50.866;5.420;2024-03-23T11:13:42;22.80;39.60
83553;DHT22;73510;50.866;5.420;2024-03-23T11:16:21;22.50;39.40
83553;DHT22;73510;50.866;5.420;2024-03-23T11:18:47;22.20;39.60
83553;DHT22;73510;50.866;5.420;2024-03-23T11:24:16;22.20;40.20
83553;DHT22;73510;50.866;5.420;2024-03-23T11:26:42;22.70;39.20
83553;DHT22;73510;50.866;5.420;2024-03-23T11:29:12;23.00;39.50
83553;DHT22;73510;50.866;5.420;2024-03-23T12:57:23;13.70;49.90
83553;DHT22;73510;50.866;5.420;2024-03-23T12:59:53;15.40;48.80
83553;DHT22;73510;50.866;5.420;2024-03-23T13:02:20;15.50;47.60
83553;DHT22;73510;50.866;5.420;2024-03-23T13:04:55;15.50;47.60
83553;DHT22;73510;50.866;5.420;2024-03-23T13:07:22;15.40;46.70
83553;DHT22;73510;50.866;5.420;2024-03-23T13:09:50;15.40;47.60
83553;DHT22;73510;50.866;5.420;2024-03-23T13:12:17;15.30;47.10
83553;DHT22;73510;50.866;5.420;2024-03-23T13:14:44;15.00;47.40
83553;DHT22;73510;50.866;5.420;2024-03-23T13:17:10;15.00;47.80
83553;DHT22;73510;50.866;5.420;2024-03-23T13:19:36;14.90;48.30
83553;DHT22;73510;50.866;5.420;2024-03-23T13:22:01;14.90;48.90
83553;DHT22;73510;50.866;5.420;2024-03-23T13:24:28;14.80;49.00
83553;DHT22;73510;50.866;5.420;2024-03-23T13:26:55;14.90;49.20
83553;DHT22;73510;50.866;5.420;2024-03-23T13:29:21;15.00;48.20
83553;DHT22;73510;50.866;5.420;2024-03-23T13:31:51;15.00;48.20
83553;DHT22;73510;50.866;5.420;2024-03-23T13:34:18;15.20;47.10
83553;DHT22;73510;50.866;5.420;2024-03-23T13:36:44;15.20;46.20
83553;DHT22;73510;50.866;5.420;2024-03-23T13:39:11;15.10;46.30
83553;DHT22;73510;50.866;5.420;2024-03-23T13:41:39;15.10;47.60
83553;DHT22;73510;50.866;5.420;2024-03-23T13:44:09;15.00;48.20
83553;DHT22;73510;50.866;5.420;2024-03-23T13:46:39;14.90;46.20
83553;DHT22;73510;50.866;5.420;2024-03-23T13:49:05;14.80;47.30
83553;DHT22;73510;50.866;5.420;2024-03-23T13:51:31;14.70;46.20
83553;DHT22;73510;50.866;5.420;2024-03-23T13:53:57;14.70;45.80
83553;DHT22;73510;50.866;5.420;2024-03-23T13:56:26;14.70;45.60
83553;DHT22;73510;50.866;5.420;2024-03-23T13:58:54;14.60;45.00
83553;DHT22;73510;50.866;5.420;2024-03-23T14:01:19;14.60;46.20
83553;DHT22;73510;50.866;5.420;2024-03-23T14:03:45;14.50;46.50
83553;DHT22;73510;50.866;5.420;2024-03-23T14:06:10;14.40;45.90
83553;DHT22;73510;50.866;5.420;2024-03-23T14:08:39;14.30;46.40
83553;DHT22;73510;50.866;5.420;2024-03-23T14:11:10;14.10;45.90
83553;DHT22;73510;50.866;5.420;2024-03-23T14:13:36;14.10;47.00
83553;DHT22;73510;50.866;5.420;2024-03-23T14:16:02;14.00;47.80
83553;DHT22;73510;50.866;5.420;2024-03-23T14:18:28;13.90;46.60
83553;DHT22;73510;50.866;5.420;2024-03-23T14:20:59;13.70;47.50
83553;DHT22;73510;50.866;5.420;2024-03-23T14:23:26;13.70;48.80
83553;DHT22;73510;50.866;5.420;2024-03-23T14:25:58;13.60;47.70
83553;DHT22;73510;50.866;5.420;2024-03-23T14:28:24;13.50;48.20
83553;DHT22;73510;50.866;5.420;2024-03-23T14:30:54;13.50;50.40
83553;DHT22;73510;50.866;5.420;2024-03-23T14:33:20;13.10;53.10
83553;DHT22;73510;50.866;5.420;2024-03-23T14:35:55;12.70;54.00
83553;DHT22;73510;50.866;5.420;2024-03-23T14:38:25;12.50;53.90
83553;DHT22;73510;50.866;5.420;2024-03-23T14:40:51;12.20;54.80
83553;DHT22;73510;50.866;5.420;2024-03-23T14:43:18;12.10;54.90
83553;DHT22;73510;50.866;5.420;2024-03-23T14:46:09;12.10;54.90
83553;DHT22;73510;50.866;5.420;2024-03-23T14:48:36;12.10;55.30
83553;DHT22;73510;50.866;5.420;2024-03-23T14:51:02;12.20;56.10
83553;DHT22;73510;50.866;5.420;2024-03-23T14:53:39;12.30;56.10
83553;DHT22;73510;50.866;5.420;2024-03-23T14:56:08;12.50;56.70
83553;DHT22;73510;50.866;5.420;2024-03-23T14:58:35;12.50;56.70
83553;DHT22;73510;50.866;5.420;2024-03-23T15:01:05;12.60;55.80
83553;DHT22;73510;50.866;5.420;2024-03-23T15:03:30;12.60;55.90
83553;DHT22;73510;50.866;5.420;2024-03-23T15:05:57;12.60;57.20
83553;DHT22;73510;50.866;5.420;2024-03-23T15:08:23;12.50;56.30
83553;DHT22;73510;50.866;5.420;2024-03-23T15:10:49;12.50;54.50
83553;DHT22;73510;50.866;5.420;2024-03-23T15:13:16;12.50;57.10
83553;DHT22;73510;50.866;5.420;2024-03-23T15:15:42;12.50;56.30
83553;DHT22;73510;50.866;5.420;2024-03-23T15:18:13;12.50;55.30
83553;DHT22;73510;50.866;5.420;2024-03-23T15:20:53;12.50;53.70
83553;DHT22;73510;50.866;5.420;2024-03-23T15:23:19;12.50;54.20
83553;DHT22;73510;50.866;5.420;2024-03-23T15:25:44;12.30;52.90
83553;DHT22;73510;50.866;5.420;2024-03-23T15:28:10;12.30;54.00
83553;DHT22;73510;50.866;5.420;2024-03-23T15:30:35;12.40;54.80
83553;DHT22;73510;50.866;5.420;2024-03-23T15:33:01;12.50;54.00
83553;DHT22;73510;50.866;5.420;2024-03-23T15:35:28;12.50;53.70
83553;DHT22;73510;50.866;5.420;2024-03-23T15:37:53;12.50;53.50
83553;DHT22;73510;50.866;5.420;2024-03-23T15:40:19;12.50;53.50
83553;DHT22;73510;50.866;5.420;2024-03-23T15:42:44;12.50;53.40
83553;DHT22;73510;50.866;5.420;2024-03-23T15:45:10;12.50;54.00
83553;DHT22;73510;50.866;5.420;2024-03-23T15:47:36;12.50;52.80
83553;DHT22;73510;50.866;5.420;2024-03-23T15:50:02;12.50;53.40
83553;DHT22;73510;50.866;5.420;2024-03-23T15:52:33;12.50;52.60
83553;DHT22;73510;50.866;5.420;2024-03-23T15:54:59;12.50;52.90
83553;DHT22;73510;50.866;5.420;2024-03-23T15:57:25;12.30;53.10
83553;DHT22;73510;50.866;5.420;2024-03-23T15:59:51;12.30;53.40
83553;DHT22;73510;50.866;5.420;2024-03-23T16:02:16;12.30;53.50
83553;DHT22;73510;50.866;5.420;2024-03-23T16:04:42;12.30;52.50
83553;DHT22;73510;50.866;5.420;2024-03-23T16:07:10;12.20;52.20
83553;DHT22;73510;50.866;5.420;2024-03-23T16:09:36;12.20;52.10
83553;DHT22;73510;50.866;5.420;2024-03-23T16:12:03;12.10;52.90
83553;DHT22;73510;50.866;5.420;2024-03-23T16:14:29;12.10;53.00
83553;DHT22;73510;50.866;5.420;2024-03-23T16:16:54;12.20;53.60
83553;DHT22;73510;50.866;5.420;2024-03-23T16:19:20;12.20;52.60
83553;DHT22;73510;50.866;5.420;2024-03-23T16:21:47;12.20;53.70
83553;DHT22;73510;50.866;5.420;2024-03-23T16:24:13;12.20;53.30
83553;DHT22;73510;50.866;5.420;2024-03-23T16:26:39;12.20;53.80
83553;DHT22;73510;50.866;5.420;2024-03-23T16:29:04;12.10;53.10
83553;DHT22;73510;50.866;5.420;2024-03-23T16:31:30;12.10;53.10
83553;DHT22;73510;50.866;5.420;2024-03-23T16:33:56;12.10;53.20
83553;DHT22;73510;50.866;5.420;2024-03-23T16:36:22;12.10;52.90
83553;DHT22;73510;50.866;5.420;2024-03-23T16:38:48;12.00;53.10
83553;DHT22;73510;50.866;5.420;2024-03-23T16:41:14;11.90;53.70
83553;DHT22;73510;50.866;5.420;2024-03-23T16:43:42;11.90;54.30
83553;DHT22;73510;50.866;5.420;2024-03-23T16:46:10;11.90;54.00
83553;DHT22;73510;50.866;5.420;2024-03-23T16:48:40;11.90;54.10
83553;DHT22;73510;50.866;5.420;2024-03-23T16:51:07;11.90;54.10
83553;DHT22;73510;50.866;5.420;2024-03-23T16:53:33;11.70;55.00
83553;DHT22;73510;50.866;5.420;2024-03-23T16:56:01;11.50;56.20
83553;DHT22;73510;50.866;5.420;2024-03-23T16:58:28;11.50;57.00
83553;DHT22;73510;50.866;5.420;2024-03-23T17:01:10;11.70;56.90
83553;DHT22;73510;50.866;5.420;2024-03-23T17:03:49;11.80;56.80
83553;DHT22;73510;50.866;5.420;2024-03-23T17:06:15;11.90;57.00
83553;DHT22;73510;50.866;5.420;2024-03-23T17:08:42;12.00;57.50
83553;DHT22;73510;50.866;5.420;2024-03-23T17:11:09;12.10;57.60
83553;DHT22;73510;50.866;5.420;2024-03-23T17:13:35;12.00;57.40
83553;DHT22;73510;50.866;5.420;2024-03-23T17:16:01;11.90;57.30
83553;DHT22;73510;50.866;5.420;2024-03-23T17:18:27;11.70;57.90
83553;DHT22;73510;50.866;5.420;2024-03-23T17:20:53;11.70;58.50
83553;DHT22;73510;50.866;5.420;2024-03-23T17:23:28;11.50;59.20
83553;DHT22;73510;50.866;5.420;2024-03-23T17:25:54;11.40;59.10
83553;DHT22;73510;50.866;5.420;2024-03-23T17:28:21;11.30;59.00
83553;DHT22;73510;50.866;5.420;2024-03-23T17:30:47;11.10;59.30
83553;DHT22;73510;50.866;5.420;2024-03-23T17:33:13;11.00;59.70
83553;DHT22;73510;50.866;5.420;2024-03-23T17:35:39;10.90;59.40
83553;DHT22;73510;50.866;5.420;2024-03-23T17:38:05;10.80;59.30
83553;DHT22;73510;50.866;5.420;2024-03-23T17:40:31;10.60;59.60
83553;DHT22;73510;50.866;5.420;2024-03-23T17:42:56;10.50;59.80
83553;DHT22;73510;50.866;5.420;2024-03-23T17:45:25;10.40;60.00
83553;DHT22;73510;50.866;5.420;2024-03-23T17:47:51;10.30;60.30
83553;DHT22;73510;50.866;5.420;2024-03-23T17:50:17;10.40;61.50
83553;DHT22;73510;50.866;5.420;2024-03-23T17:52:44;10.30;62.50
83553;DHT22;73510;50.866;5.420;2024-03-23T17:55:10;10.40;62.10
83553;DHT22;73510;50.866;5.420;2024-03-23T17:57:35;10.40;62.50
83553;DHT22;73510;50.866;5.420;2024-03-23T18:00:01;10.40;61.80